Time;durP1;ratioP1;P1;durP2;ratioP2;P2;SDS_P1;SDS_P2;PMS_P1;PMS_P2;Temp;Humidity;BMP_temperature;BMP_pressure;BME280_temperature;BME280_humidity;BME280_pressure;Samples;Min_cycle;Max_cycle;Signal;HPM_P1;HPM_P2
2023/07/25 00:01:40;;;;;;;15.05;10.65;;;10.80;99.90;;;;;;5016985;28;20073;-78
2023/07/25 00:04:09;;;;;;;15.00;12.35;;;10.80;99.90;;;;;;5007776;28;20095;-78
2023/07/25 00:06:35;;;;;;;12.98;9.68;;;10.80;99.90;;;;;;5008144;28;20045;-79
2023/07/25 00:09:01;;;;;;;15.35;10.52;;;10.70;99.90;;;;;;5011689;28;20133;-79
2023/07/25 00:11:27;;;;;;;12.07;10.82;;;10.80;99.90;;;;;;5016965;28;20067;-78
2023/07/25 00:13:52;;;;;;;15.40;10.68;;;10.70;99.90;;;;;;5007642;28;20041;-79
2023/07/25 00:16:18;;;;;;;17.02;12.18;;;10.70;99.90;;;;;;5012580;28;20546;-79
2023/07/25 00:18:44;;;;;;;13.80;11.60;;;10.60;99.90;;;;;;5012895;28;20409;-79
2023/07/25 00:21:10;;;;;;;18.00;12.65;;;10.70;99.90;;;;;;5011627;28;20034;-79
2023/07/25 00:23:46;;;;;;;13.15;10.93;;;10.70;99.90;;;;;;5005004;28;20073;-78
2023/07/25 00:26:15;;;;;;;13.68;11.80;;;10.60;99.90;;;;;;5012148;28;20041;-78
2023/07/25 00:28:43;;;;;;;15.05;10.98;;;10.70;99.90;;;;;;5016833;28;20034;-79
2023/07/25 00:31:19;;;;;;;14.10;11.65;;;10.60;99.90;;;;;;4998583;28;20044;-79
2023/07/25 00:33:45;;;;;;;13.88;10.93;;;10.70;99.90;;;;;;5006759;28;20375;-79
2023/07/25 00:36:11;;;;;;;15.98;10.50;;;10.50;99.90;;;;;;5006782;28;20083;-79
2023/07/25 00:38:37;;;;;;;13.60;11.05;;;10.60;99.90;;;;;;5015624;28;20048;-78
2023/07/25 00:41:03;;;;;;;16.17;11.30;;;10.50;99.90;;;;;;5012800;28;20175;-79
2023/07/25 00:43:31;;;;;;;12.02;9.90;;;10.60;99.90;;;;;;5023735;28;20398;-79
2023/07/25 00:45:57;;;;;;;14.35;10.43;;;10.50;99.90;;;;;;5015263;28;20128;-79
2023/07/25 00:48:23;;;;;;;14.15;10.77;;;10.50;99.90;;;;;;5015867;28;20187;-78
2023/07/25 00:50:50;;;;;;;16.42;11.32;;;10.50;99.90;;;;;;5006510;28;20038;-79
2023/07/25 00:53:23;;;;;;;16.10;10.98;;;10.40;99.90;;;;;;5007460;28;20187;-79
2023/07/25 00:55:52;;;;;;;13.15;11.40;;;10.40;99.90;;;;;;5014984;28;20497;-79
2023/07/25 00:58:24;;;;;;;16.80;12.05;;;10.50;99.90;;;;;;5015912;28;20049;-79
2023/07/25 01:01:00;;;;;;;15.23;11.07;;;10.40;99.90;;;;;;5006163;28;20045;-79
2023/07/25 01:03:34;;;;;;;13.07;11.43;;;10.40;99.90;;;;;;5011299;28;20057;-79
2023/07/25 01:06:07;;;;;;;13.55;10.32;;;10.40;99.90;;;;;;5007343;28;20265;-80
2023/07/25 01:08:52;;;;;;;12.52;10.52;;;10.40;99.90;;;;;;5015040;28;20045;-79
2023/07/25 01:11:18;;;;;;;19.40;13.43;;;10.30;99.90;;;;;;5022476;28;20149;-79
2023/07/25 01:13:45;;;;;;;17.58;12.27;;;10.30;99.90;;;;;;5022993;28;20516;-78
2023/07/25 01:16:30;;;;;;;16.55;11.73;;;10.30;99.90;;;;;;5014376;28;20048;-80
2023/07/25 01:19:00;;;;;;;12.35;10.20;;;10.30;99.90;;;;;;5015100;28;20052;-79
2023/07/25 01:21:32;;;;;;;16.10;11.95;;;10.30;99.90;;;;;;5006163;28;20049;-79
2023/07/25 01:24:05;;;;;;;14.88;11.68;;;10.20;99.90;;;;;;5006521;28;20516;-79
2023/07/25 01:26:31;;;;;;;13.80;9.80;;;10.30;99.90;;;;;;5013460;28;20047;-79
2023/07/25 01:28:57;;;;;;;13.88;10.95;;;10.20;99.90;;;;;;5003995;28;20433;-80
2023/07/25 01:31:23;;;;;;;14.30;10.48;;;10.20;99.90;;;;;;5003005;28;20513;-79
2023/07/25 01:33:48;;;;;;;13.88;11.43;;;10.20;99.90;;;;;;5006142;28;20043;-78
2023/07/25 01:36:14;;;;;;;16.40;12.05;;;10.20;99.90;;;;;;5014153;28;20406;-78
2023/07/25 01:38:40;;;;;;;14.30;10.77;;;10.20;99.90;;;;;;5023365;28;20069;-79
2023/07/25 01:41:06;;;;;;;29.75;15.30;;;10.20;99.90;;;;;;5002562;28;20030;-79
2023/07/25 01:43:32;;;;;;;21.05;12.48;;;10.20;99.90;;;;;;5009512;28;20579;-79
2023/07/25 01:46:10;;;;;;;14.63;11.25;;;10.20;99.90;;;;;;5012452;28;20551;-79
2023/07/25 01:48:38;;;;;;;19.67;13.30;;;10.10;99.90;;;;;;5009107;28;20512;-79
2023/07/25 01:51:04;;;;;;;16.75;12.15;;;10.20;99.90;;;;;;5020739;28;20698;-79
2023/07/25 01:53:39;;;;;;;20.10;12.90;;;10.10;99.90;;;;;;5007259;28;20092;-79
2023/07/25 01:56:05;;;;;;;20.95;13.32;;;10.10;99.90;;;;;;5013518;28;20053;-79
2023/07/25 01:58:33;;;;;;;14.55;11.95;;;10.10;99.90;;;;;;5013591;28;20040;-79
2023/07/25 02:01:02;;;;;;;21.38;14.18;;;10.10;99.90;;;;;;5012762;28;20041;-79
2023/07/25 02:03:28;;;;;;;22.55;16.38;;;10.10;99.90;;;;;;5005869;28;20095;-79
2023/07/25 02:05:57;;;;;;;19.95;15.85;;;10.10;99.90;;;;;;5012122;28;20124;-80
2023/07/25 02:08:22;;;;;;;24.30;18.95;;;10.10;99.90;;;;;;5006648;28;20103;-79
2023/07/25 02:10:48;;;;;;;35.85;20.42;;;10.10;99.90;;;;;;5005916;28;20066;-80
2023/07/25 02:13:14;;;;;;;23.50;19.92;;;10.30;99.90;;;;;;5005237;28;20580;-79
2023/07/25 02:15:43;;;;;;;25.20;18.85;;;10.20;99.90;;;;;;5013915;28;20041;-79
2023/07/25 02:18:08;;;;;;;22.17;17.55;;;10.30;99.90;;;;;;5005938;28;20080;-79
2023/07/25 02:20:34;;;;;;;32.40;20.88;;;10.30;99.90;;;;;;5004312;28;20065;-78
2023/07/25 02:23:03;;;;;;;32.80;23.35;;;10.50;99.90;;;;;;5004662;28;20034;-79
2023/07/25 02:25:40;;;;;;;27.73;21.17;;;10.60;99.90;;;;;;5013348;28;20041;-79
2023/07/25 02:28:06;;;;;;;25.42;20.75;;;10.60;99.90;;;;;;5005594;28;20402;-78
2023/07/25 02:30:32;;;;;;;25.55;19.33;;;10.70;99.90;;;;;;5010664;28;20037;-79
2023/07/25 02:32:58;;;;;;;26.85;20.60;;;10.80;99.90;;;;;;5004976;28;20049;-78
2023/07/25 02:35:24;;;;;;;22.48;19.10;;;10.80;99.90;;;;;;5013317;28;20036;-79
2023/07/25 02:37:49;;;;;;;23.33;18.45;;;10.90;99.90;;;;;;5004209;28;20065;-78
2023/07/25 02:40:18;;;;;;;21.42;16.65;;;10.90;99.90;;;;;;5000593;28;20069;-79
2023/07/25 02:42:47;;;;;;;19.35;16.90;;;10.90;99.90;;;;;;5005443;28;20120;-79
2023/07/25 02:45:15;;;;;;;18.90;15.85;;;11.00;99.90;;;;;;5012241;28;20124;-78
2023/07/25 02:47:41;;;;;;;18.77;16.17;;;11.00;99.90;;;;;;5004872;28;20128;-80
2023/07/25 02:50:10;;;;;;;21.83;16.42;;;10.90;99.90;;;;;;5007261;28;20104;-79
2023/07/25 02:52:36;;;;;;;23.05;16.33;;;11.10;99.90;;;;;;5005315;28;20421;-79
2023/07/25 02:55:05;;;;;;;26.45;17.25;;;11.10;99.90;;;;;;5032988;28;20045;-79
2023/07/25 02:57:31;;;;;;;25.05;18.77;;;11.10;99.90;;;;;;5009382;28;20041;-79
2023/07/25 02:59:59;;;;;;;25.60;17.50;;;11.30;99.90;;;;;;5031692;28;20397;-78
2023/07/25 03:02:25;;;;;;;23.10;16.77;;;11.20;99.90;;;;;;5011292;28;20387;-79
2023/07/25 03:04:54;;;;;;;19.42;15.73;;;11.30;99.90;;;;;;5014720;28;20102;-78
2023/07/25 03:07:20;;;;;;;22.95;18.25;;;11.30;99.90;;;;;;5011352;28;20106;-78
2023/07/25 03:09:45;;;;;;;22.55;17.50;;;11.30;99.90;;;;;;5015177;28;20132;-78
2023/07/25 03:12:13;;;;;;;19.48;15.77;;;11.50;99.90;;;;;;5012763;28;20045;-78
2023/07/25 03:14:42;;;;;;;17.65;14.93;;;11.50;99.90;;;;;;5013348;28;20045;-79
2023/07/25 03:17:16;;;;;;;18.92;15.07;;;11.50;99.90;;;;;;5007920;28;20042;-78
2023/07/25 03:19:42;;;;;;;21.00;16.88;;;11.50;99.90;;;;;;5015173;28;20038;-78
2023/07/25 03:22:07;;;;;;;21.30;15.98;;;11.50;99.90;;;;;;5004879;28;20383;-79
2023/07/25 03:24:33;;;;;;;18.42;15.23;;;11.50;99.90;;;;;;5011800;28;20077;-79
2023/07/25 03:26:59;;;;;;;20.38;15.23;;;11.60;99.90;;;;;;5009973;28;20049;-79
2023/07/25 03:29:25;;;;;;;19.98;15.35;;;11.60;99.90;;;;;;5003537;28;20046;-78
2023/07/25 03:31:53;;;;;;;20.35;16.58;;;11.60;99.90;;;;;;5012626;28;20047;-79
2023/07/25 03:34:19;;;;;;;17.38;14.95;;;11.60;99.90;;;;;;5009853;28;20046;-78
2023/07/25 03:36:45;;;;;;;19.40;15.55;;;11.60;99.90;;;;;;5007213;28;20133;-79
2023/07/25 03:39:10;;;;;;;16.30;14.57;;;11.70;99.90;;;;;;4991169;23;20054;-76
2023/07/25 03:41:36;;;;;;;18.85;16.33;;;11.70;99.90;;;;;;5008799;28;20243;-76
2023/07/25 03:44:02;;;;;;;27.98;17.33;;;11.80;99.90;;;;;;4977501;28;20042;-76
2023/07/25 03:46:28;;;;;;;17.50;14.80;;;11.80;99.90;;;;;;4982446;28;20095;-76
2023/07/25 03:48:53;;;;;;;16.95;15.15;;;11.80;99.90;;;;;;4999701;28;20401;-77
2023/07/25 03:51:19;;;;;;;15.85;13.45;;;11.90;99.90;;;;;;4995796;28;20081;-76
2023/07/25 03:53:45;;;;;;;26.08;15.38;;;11.80;99.90;;;;;;4997044;28;20078;-76
2023/07/25 03:56:10;;;;;;;13.98;12.52;;;11.90;99.90;;;;;;4979610;28;20037;-76
2023/07/25 03:58:36;;;;;;;16.52;13.02;;;11.90;99.90;;;;;;5005116;28;20049;-76
2023/07/25 04:01:01;;;;;;;26.52;17.25;;;11.90;99.90;;;;;;4995675;28;20092;-77
2023/07/25 04:03:27;;;;;;;17.30;14.07;;;11.90;99.90;;;;;;4996694;28;20083;-77
2023/07/25 04:05:53;;;;;;;16.08;14.18;;;12.00;99.90;;;;;;4995825;28;20120;-76
2023/07/25 04:08:18;;;;;;;20.23;13.27;;;12.00;99.90;;;;;;5004845;28;20515;-76
2023/07/25 04:10:44;;;;;;;19.25;13.73;;;12.00;99.90;;;;;;4992987;28;20081;-77
2023/07/25 04:13:09;;;;;;;17.55;14.13;;;12.10;99.90;;;;;;4995594;28;20073;-76
2023/07/25 04:15:35;;;;;;;18.13;14.27;;;12.10;99.90;;;;;;4995219;28;20038;-76
2023/07/25 04:18:01;;;;;;;18.80;14.95;;;12.20;99.90;;;;;;4982666;28;20041;-76
2023/07/25 04:20:27;;;;;;;28.00;18.25;;;12.20;99.90;;;;;;4980383;28;20052;-76
2023/07/25 04:22:52;;;;;;;21.15;16.63;;;12.20;99.90;;;;;;4994681;28;20042;-76
2023/07/25 04:25:18;;;;;;;19.13;16.27;;;12.30;99.90;;;;;;4996232;28;20036;-78
2023/07/25 04:27:44;;;;;;;20.13;15.68;;;12.30;99.90;;;;;;4992477;28;20034;-76
2023/07/25 04:30:10;;;;;;;19.52;14.45;;;12.40;99.90;;;;;;4988220;28;20041;-77
2023/07/25 04:32:36;;;;;;;18.40;14.57;;;12.40;99.90;;;;;;4995594;28;20042;-76
2023/07/25 04:35:01;;;;;;;19.08;14.57;;;12.40;99.90;;;;;;4980426;28;20129;-76
2023/07/25 04:37:27;;;;;;;24.95;16.90;;;12.50;99.90;;;;;;5000725;28;20041;-76
2023/07/25 04:39:52;;;;;;;25.23;17.23;;;12.60;99.90;;;;;;4998789;28;20385;-77
2023/07/25 04:42:18;;;;;;;23.42;15.50;;;12.60;99.90;;;;;;5001216;28;20038;-76
2023/07/25 04:44:43;;;;;;;14.95;12.30;;;12.70;99.90;;;;;;4995291;28;20075;-76
2023/07/25 04:47:09;;;;;;;14.98;13.35;;;12.70;99.90;;;;;;4987422;28;20113;-76
2023/07/25 04:49:35;;;;;;;21.48;14.55;;;12.80;99.90;;;;;;5007194;28;21256;-77
2023/07/25 04:52:00;;;;;;;15.88;11.75;;;12.80;99.90;;;;;;5003719;28;20080;-76
2023/07/25 04:54:26;;;;;;;22.70;15.25;;;12.90;99.90;;;;;;4994555;28;20046;-76
2023/07/25 04:56:51;;;;;;;16.10;11.73;;;12.90;99.90;;;;;;4994635;28;20042;-76
2023/07/25 04:59:17;;;;;;;15.73;11.15;;;13.00;99.90;;;;;;4995548;28;20065;-76
2023/07/25 05:01:42;;;;;;;18.15;9.85;;;13.00;99.90;;;;;;4995203;28;20398;-76
2023/07/25 05:04:08;;;;;;;13.27;10.20;;;13.10;99.90;;;;;;5002553;28;20073;-76
2023/07/25 05:06:34;;;;;;;15.20;9.23;;;13.10;99.90;;;;;;5000252;28;20528;-76
2023/07/25 05:08:59;;;;;;;14.70;9.13;;;13.10;99.90;;;;;;4995443;28;20046;-76
2023/07/25 05:11:25;;;;;;;13.85;9.55;;;13.10;99.90;;;;;;4992916;28;20052;-76
2023/07/25 05:13:50;;;;;;;13.18;8.77;;;13.10;99.90;;;;;;4978492;28;20042;-76
2023/07/25 05:16:16;;;;;;;14.00;9.05;;;13.10;99.90;;;;;;4995298;28;20041;-76
2023/07/25 05:18:41;;;;;;;14.25;9.35;;;13.10;99.90;;;;;;4995217;28;20045;-76
2023/07/25 05:21:07;;;;;;;13.88;9.32;;;13.10;99.90;;;;;;4993712;28;20041;-76
2023/07/25 05:23:33;;;;;;;13.95;9.38;;;13.20;99.90;;;;;;4994473;28;20514;-76
2023/07/25 05:25:58;;;;;;;11.02;8.55;;;13.50;99.90;;;;;;4993590;28;20072;-76
2023/07/25 05:28:24;;;;;;;10.85;7.78;;;13.60;99.90;;;;;;4995030;28;20485;-76
2023/07/25 05:30:49;;;;;;;10.52;7.97;;;13.60;99.90;;;;;;4992226;28;20041;-76
2023/07/25 05:33:15;;;;;;;14.13;8.68;;;13.60;99.90;;;;;;4993434;28;20037;-76
2023/07/25 05:35:40;;;;;;;12.00;7.57;;;13.70;99.90;;;;;;4994758;28;20064;-77
2023/07/25 05:38:07;;;;;;;14.18;8.43;;;13.70;99.90;;;;;;4994561;28;20128;-77
2023/07/25 05:40:34;;;;;;;14.98;7.95;;;13.80;99.90;;;;;;4993856;28;20064;-76
2023/07/25 05:43:00;;;;;;;13.32;6.88;;;13.90;99.90;;;;;;4994023;28;20132;-78
2023/07/25 05:45:26;;;;;;;13.77;6.28;;;14.50;99.90;;;;;;4993494;28;20585;-77
2023/07/25 05:47:52;;;;;;;10.13;5.15;;;15.30;99.90;;;;;;4978773;28;20042;-76
2023/07/25 05:50:17;;;;;;;9.93;3.85;;;16.00;99.90;;;;;;4994037;28;20574;-77
2023/07/25 05:52:43;;;;;;;8.98;3.67;;;16.30;99.90;;;;;;4994621;28;20049;-76
2023/07/25 05:55:08;;;;;;;9.30;3.90;;;16.30;99.90;;;;;;4981775;28;20041;-76
2023/07/25 05:57:34;;;;;;;8.55;3.80;;;16.20;99.90;;;;;;4992162;28;20510;-76
2023/07/25 05:59:59;;;;;;;7.35;2.88;;;16.10;99.90;;;;;;4992366;28;20049;-76
2023/07/25 06:02:25;;;;;;;8.02;3.20;;;15.90;99.90;;;;;;4994657;28;20053;-76
2023/07/25 06:04:51;;;;;;;8.68;3.10;;;15.70;99.90;;;;;;4994339;28;20477;-77
2023/07/25 06:07:16;;;;;;;7.82;3.10;;;15.50;99.90;;;;;;4991023;28;20037;-75
2023/07/25 06:09:42;;;;;;;6.13;2.95;;;15.40;99.90;;;;;;4993956;28;20042;-75
2023/07/25 06:12:08;;;;;;;8.68;3.63;;;15.30;99.90;;;;;;5013824;28;20049;-77
2023/07/25 06:14:35;;;;;;;9.43;3.00;;;15.10;99.90;;;;;;4991766;28;20512;-75
2023/07/25 06:17:00;;;;;;;8.32;2.97;;;15.00;99.90;;;;;;4989869;28;20048;-76
2023/07/25 06:19:26;;;;;;;8.93;3.03;;;14.90;99.90;;;;;;4991546;28;20037;-76
2023/07/25 06:21:52;;;;;;;6.55;2.53;;;14.90;99.90;;;;;;4990114;28;20084;-76
2023/07/25 06:24:18;;;;;;;9.32;3.35;;;14.80;99.90;;;;;;5001843;28;20160;-75
2023/07/25 06:26:43;;;;;;;8.60;2.78;;;14.80;99.90;;;;;;5001229;28;20037;-76
2023/07/25 06:29:09;;;;;;;7.28;2.60;;;14.90;99.90;;;;;;4977588;28;20046;-76
2023/07/25 06:31:35;;;;;;;8.32;3.00;;;14.80;99.90;;;;;;4987588;28;20068;-73
2023/07/25 06:34:01;;;;;;;8.77;2.30;;;14.80;99.90;;;;;;4993924;28;20034;-75
2023/07/25 06:36:26;;;;;;;11.23;3.03;;;14.80;99.90;;;;;;4993048;28;20042;-75
2023/07/25 06:38:52;;;;;;;8.43;2.78;;;14.80;99.90;;;;;;4992815;28;20084;-75
2023/07/25 06:41:17;;;;;;;8.07;2.90;;;14.80;99.90;;;;;;4995345;28;20038;-76
2023/07/25 06:43:43;;;;;;;8.20;2.75;;;14.90;99.90;;;;;;5006088;28;20088;-75
2023/07/25 06:46:09;;;;;;;7.43;2.33;;;14.90;99.90;;;;;;4993946;28;20486;-75
2023/07/25 06:48:34;;;;;;;8.02;2.35;;;14.90;99.90;;;;;;4992865;28;20049;-75
2023/07/25 06:51:00;;;;;;;6.28;2.25;;;14.90;99.90;;;;;;4998270;28;20087;-76
2023/07/25 06:53:25;;;;;;;6.38;2.22;;;14.80;99.90;;;;;;4996499;28;20038;-76
2023/07/25 06:55:51;;;;;;;5.95;2.50;;;14.80;99.90;;;;;;4992681;28;20111;-74
2023/07/25 06:58:16;;;;;;;5.35;2.08;;;14.80;99.90;;;;;;4992508;28;20046;-75
2023/07/25 07:00:42;;;;;;;7.93;2.40;;;14.80;99.90;;;;;;4969443;28;20041;-76
2023/07/25 07:03:08;;;;;;;6.93;2.08;;;14.90;99.90;;;;;;4996581;28;20479;-75
2023/07/25 07:05:33;;;;;;;8.57;2.10;;;14.80;99.90;;;;;;4994008;28;20046;-75
2023/07/25 07:08:00;;;;;;;6.13;1.80;;;14.90;99.90;;;;;;4989994;28;20478;-75
2023/07/25 07:10:35;;;;;;;6.93;1.58;;;15.00;99.90;;;;;;4983549;28;20046;-75
2023/07/25 07:13:00;;;;;;;7.22;2.00;;;15.00;99.90;;;;;;4994002;28;20056;-76
2023/07/25 07:15:26;;;;;;;9.93;1.80;;;15.10;99.90;;;;;;4993754;28;20048;-71
2023/07/25 07:17:55;;;;;;;6.88;1.90;;;15.20;99.90;;;;;;4993075;28;20108;-75
2023/07/25 07:20:21;;;;;;;8.38;2.53;;;15.30;99.90;;;;;;4993700;28;20132;-74
2023/07/25 07:22:47;;;;;;;6.38;1.92;;;15.40;99.90;;;;;;4994129;28;20492;-74
2023/07/25 07:25:12;;;;;;;6.05;1.38;;;15.60;99.90;;;;;;4993440;28;20117;-75
2023/07/25 07:27:38;;;;;;;5.28;1.83;;;15.60;99.90;;;;;;4993466;28;20448;-74
2023/07/25 07:30:04;;;;;;;7.18;1.88;;;15.60;99.90;;;;;;4993691;28;20048;-75
2023/07/25 07:32:30;;;;;;;5.90;1.70;;;15.70;99.90;;;;;;5026939;28;20401;-74
2023/07/25 07:34:55;;;;;;;4.97;1.17;;;15.70;99.90;;;;;;4989427;28;20045;-75
2023/07/25 07:37:21;;;;;;;5.78;1.30;;;15.70;99.90;;;;;;4992127;28;20490;-77
2023/07/25 07:39:46;;;;;;;5.72;1.50;;;15.80;99.90;;;;;;4977393;28;20048;-76
2023/07/25 07:42:12;;;;;;;4.55;1.35;;;15.80;99.90;;;;;;4982245;28;20041;-76
2023/07/25 07:44:37;;;;;;;3.78;1.20;;;15.90;99.90;;;;;;4993666;28;20398;-76
2023/07/25 07:47:03;;;;;;;6.15;1.30;;;16.00;99.90;;;;;;4994599;28;20100;-76
2023/07/25 07:49:29;;;;;;;4.43;1.30;;;16.20;99.90;;;;;;4979892;28;20383;-76
2023/07/25 07:51:55;;;;;;;4.93;1.13;;;16.30;99.90;;;;;;5005056;28;20057;-76
2023/07/25 07:54:22;;;;;;;4.88;1.00;;;16.60;99.90;;;;;;4997124;28;20037;-76
2023/07/25 07:56:47;;;;;;;5.68;1.23;;;16.90;99.90;;;;;;4996868;28;20038;-76
2023/07/25 07:59:13;;;;;;;6.43;1.40;;;17.20;99.90;;;;;;4994935;28;20176;-77
2023/07/25 08:01:38;;;;;;;6.28;1.08;;;17.40;99.90;;;;;;5005029;28;20038;-76
2023/07/25 08:04:04;;;;;;;5.05;1.00;;;17.40;99.90;;;;;;4996837;28;20030;-77
2023/07/25 08:06:30;;;;;;;4.78;1.45;;;17.40;99.90;;;;;;4996754;28;20034;-76
2023/07/25 08:08:56;;;;;;;4.95;1.20;;;17.30;99.90;;;;;;4995514;28;20469;-77
2023/07/25 08:11:22;;;;;;;6.72;1.25;;;17.40;99.90;;;;;;5009808;28;20033;-76
2023/07/25 08:13:47;;;;;;;4.68;1.10;;;17.70;99.90;;;;;;5016136;28;20040;-76
2023/07/25 08:16:13;;;;;;;3.78;0.95;;;17.90;99.90;;;;;;5015931;28;20033;-77
2023/07/25 08:18:38;;;;;;;4.78;1.05;;;18.40;99.90;;;;;;5002155;28;20120;-77
2023/07/25 08:21:04;;;;;;;3.50;0.95;;;18.60;99.90;;;;;;4998375;28;20138;-76
2023/07/25 08:23:30;;;;;;;3.95;1.20;;;18.90;99.90;;;;;;4985879;28;20548;-77
2023/07/25 08:25:56;;;;;;;4.85;0.90;;;19.60;99.90;;;;;;5016113;28;20095;-77
2023/07/25 08:28:22;;;;;;;3.40;0.82;;;20.20;99.90;;;;;;5003891;28;20037;-77
2023/07/25 08:30:47;;;;;;;3.97;1.10;;;20.60;99.90;;;;;;5004241;28;20096;-77
2023/07/25 08:33:15;;;;;;;2.45;0.80;;;20.70;99.90;;;;;;4996199;28;20038;-77
2023/07/25 08:35:41;;;;;;;4.78;1.15;;;21.10;99.90;;;;;;4995172;28;20044;-78
2023/07/25 08:38:07;;;;;;;4.53;0.95;;;21.60;99.90;;;;;;5003562;28;20513;-77
2023/07/25 08:40:32;;;;;;;2.97;1.10;;;21.70;99.90;;;;;;4979765;28;20040;-77
2023/07/25 08:43:07;;;;;;;3.65;0.98;;;22.10;99.90;;;;;;4978810;28;20092;-77
2023/07/25 08:45:33;;;;;;;5.05;0.90;;;22.70;99.90;;;;;;5003267;28;20410;-77
2023/07/25 08:48:04;;;;;;;2.78;0.77;;;23.20;99.90;;;;;;4995241;28;20049;-77
2023/07/25 08:50:32;;;;;;;2.35;0.80;;;23.60;99.90;;;;;;4995793;28;20045;-77
2023/07/25 08:53:00;;;;;;;4.50;0.73;;;23.90;99.90;;;;;;4979396;28;20397;-77
2023/07/25 08:55:26;;;;;;;3.65;0.95;;;23.80;99.90;;;;;;4984241;28;20041;-77
2023/07/25 08:57:52;;;;;;;2.58;0.60;;;23.50;98.60;;;;;;4997896;28;20041;-77
2023/07/25 09:00:18;;;;;;;2.33;0.75;;;23.50;91.90;;;;;;4995558;28;20563;-77
2023/07/25 09:02:44;;;;;;;3.88;0.73;;;23.50;81.10;;;;;;4978727;28;20038;-77
2023/07/25 09:05:10;;;;;;;4.07;0.90;;;23.60;86.30;;;;;;4981279;28;20026;-77
2023/07/25 09:07:35;;;;;;;2.90;0.80;;;23.50;80.00;;;;;;5003201;28;20046;-77
2023/07/25 09:10:01;;;;;;;3.83;0.90;;;22.90;76.60;;;;;;4995407;28;20041;-77
2023/07/25 09:12:27;;;;;;;3.47;1.00;;;22.40;99.70;;;;;;4994667;28;20042;-77
2023/07/25 09:14:53;;;;;;;4.30;0.90;;;22.40;94.00;;;;;;5003647;28;20038;-78
2023/07/25 09:17:19;;;;;;;2.95;0.73;;;22.60;96.00;;;;;;4995055;28;20042;-77
2023/07/25 09:19:47;;;;;;;3.95;0.98;;;22.50;92.70;;;;;;4995589;28;20042;-77
2023/07/25 09:22:29;;;;;;;3.35;0.82;;;21.90;83.50;;;;;;4994348;28;20494;-77
2023/07/25 09:24:56;;;;;;;2.60;0.90;;;21.80;94.60;;;;;;5009327;28;20045;-77
2023/07/25 09:27:21;;;;;;;3.97;0.90;;;21.60;99.90;;;;;;4994007;28;20096;-77
2023/07/25 09:29:51;;;;;;;5.28;0.80;;;21.70;99.90;;;;;;4995011;28;20037;-77
2023/07/25 09:32:19;;;;;;;4.15;1.00;;;22.00;92.70;;;;;;5001729;28;20077;-77
2023/07/25 09:34:46;;;;;;;3.58;0.95;;;22.00;85.90;;;;;;5002655;28;20041;-77
2023/07/25 09:37:15;;;;;;;2.90;0.70;;;21.90;79.00;;;;;;4983528;28;20383;-76
2023/07/25 09:39:42;;;;;;;9.35;1.20;;;21.60;77.90;;;;;;5004377;28;20049;-77
2023/07/25 09:42:08;;;;;;;4.72;1.10;;;21.50;80.90;;;;;;4996063;28;20487;-77
2023/07/25 09:44:33;;;;;;;2.75;1.00;;;21.50;91.70;;;;;;4995909;28;20040;-77
2023/07/25 09:46:59;;;;;;;4.53;0.95;;;21.30;99.90;;;;;;4994950;28;20401;-77
2023/07/25 09:49:25;;;;;;;5.43;1.60;;;21.50;99.90;;;;;;5003797;28;20544;-77
2023/07/25 09:52:03;;;;;;;3.05;0.95;;;22.10;99.90;;;;;;4996259;28;20052;-78
2023/07/25 09:54:29;;;;;;;2.80;0.80;;;22.80;99.90;;;;;;4996532;28;20554;-78
2023/07/25 09:56:54;;;;;;;2.88;0.90;;;23.20;87.60;;;;;;4978246;28;20124;-77
2023/07/25 09:59:22;;;;;;;4.07;1.00;;;23.40;75.70;;;;;;4987811;28;20505;-78
2023/07/25 10:01:49;;;;;;;3.42;0.82;;;23.30;74.00;;;;;;4996088;28;20064;-77
2023/07/25 10:04:16;;;;;;;4.32;1.10;;;22.90;77.50;;;;;;4995927;28;20180;-77
2023/07/25 10:06:42;;;;;;;2.95;0.98;;;22.60;85.40;;;;;;4978476;28;20064;-77
2023/07/25 10:09:09;;;;;;;4.00;0.95;;;22.30;95.00;;;;;;5000129;28;20042;-77
2023/07/25 10:11:35;;;;;;;3.30;0.70;;;22.40;92.50;;;;;;4995076;28;20545;-77
2023/07/25 10:14:01;;;;;;;5.05;0.98;;;22.70;98.40;;;;;;4995940;28;20034;-78
2023/07/25 10:16:27;;;;;;;3.15;0.88;;;23.10;85.00;;;;;;4994838;28;20049;-77
2023/07/25 10:18:54;;;;;;;2.95;1.02;;;23.60;98.80;;;;;;5004022;28;20489;-78
2023/07/25 10:21:44;;;;;;;3.17;0.80;;;24.10;90.00;;;;;;4996161;28;20069;-77
2023/07/25 10:24:12;;;;;;;4.55;0.85;;;24.60;93.20;;;;;;4996517;28;20046;-78
2023/07/25 10:26:52;;;;;;;4.35;0.82;;;25.00;96.00;;;;;;4995559;28;20490;-78
2023/07/25 10:29:38;;;;;;;3.78;1.00;;;25.00;74.50;;;;;;4994882;28;20047;-77
2023/07/25 10:32:04;;;;;;;5.45;0.90;;;24.50;71.10;;;;;;4993866;28;20054;-78
2023/07/25 10:34:51;;;;;;;4.07;0.85;;;23.70;69.50;;;;;;4991980;28;20037;-77
2023/07/25 10:37:29;;;;;;;3.17;0.82;;;23.00;71.50;;;;;;5003760;28;20071;-78
2023/07/25 10:40:16;;;;;;;3.85;1.00;;;22.90;82.30;;;;;;4980306;28;20096;-77
2023/07/25 10:42:52;;;;;;;3.47;0.95;;;23.20;92.40;;;;;;4994249;28;20041;-76
2023/07/25 10:45:29;;;;;;;4.28;0.93;;;23.70;93.50;;;;;;4989954;28;20572;-76
2023/07/25 10:48:02;;;;;;;3.63;0.80;;;24.30;83.50;;;;;;5010857;28;20568;-77
2023/07/25 10:50:28;;;;;;;;;;;24.60;83.90;;;;;;5014444;28;20448;-77
2023/07/25 10:52:54;;;;;;;4.05;0.80;;;24.40;64.80;;;;;;5000311;28;19917;-76
2023/07/25 10:55:20;;;;;;;4.07;1.00;;;23.90;71.50;;;;;;4992279;28;20388;-76
2023/07/25 10:58:08;;;;;;;4.25;0.90;;;23.70;73.80;;;;;;5000183;28;20470;-78
2023/07/25 11:00:38;;;;;;;3.30;0.82;;;23.60;67.90;;;;;;4996592;28;20038;-76
2023/07/25 11:03:35;;;;;;;3.47;1.00;;;23.00;70.30;;;;;;4986211;28;20497;-76
2023/07/25 11:06:07;;;;;;;5.35;1.10;;;22.60;78.10;;;;;;4980057;28;20038;-76
2023/07/25 11:08:34;;;;;;;2.45;1.00;;;22.50;91.10;;;;;;4991630;28;20046;-76
2023/07/25 11:11:05;;;;;;;2.70;0.80;;;22.80;95.00;;;;;;4982990;28;20037;-77
2023/07/25 11:13:32;;;;;;;2.38;0.80;;;23.30;74.30;;;;;;5009586;28;20045;-76
2023/07/25 11:16:01;;;;;;;2.22;0.68;;;23.60;65.10;;;;;;5000546;28;20034;-75
2023/07/25 11:18:26;;;;;;;3.05;0.90;;;23.70;66.80;;;;;;5001192;28;20046;-76
2023/07/25 11:21:03;;;;;;;3.67;0.80;;;23.90;69.60;;;;;;5010069;28;20120;-76
2023/07/25 11:23:29;;;;;;;1.92;0.70;;;24.20;71.00;;;;;;4979092;28;20034;-76
2023/07/25 11:25:56;;;;;;;3.28;0.98;;;24.60;76.70;;;;;;4996747;28;20074;-76
2023/07/25 11:28:22;;;;;;;3.67;0.70;;;25.00;70.40;;;;;;5012033;28;20514;-76
2023/07/25 11:30:48;;;;;;;2.05;0.55;;;25.10;60.60;;;;;;4985061;28;20147;-75
2023/07/25 11:33:13;;;;;;;3.67;0.82;;;25.10;65.70;;;;;;4996971;28;20034;-76
2023/07/25 11:35:39;;;;;;;1.85;0.70;;;25.40;71.40;;;;;;4995228;28;20041;-76
2023/07/25 11:38:04;;;;;;;3.80;0.80;;;25.80;80.10;;;;;;4997324;28;20081;-76
2023/07/25 11:40:31;;;;;;;3.13;0.60;;;26.20;70.20;;;;;;4997597;28;20549;-76
2023/07/25 11:42:57;;;;;;;1.38;0.50;;;26.30;64.20;;;;;;5004042;28;20049;-75
2023/07/25 11:45:24;;;;;;;2.33;0.60;;;26.20;60.70;;;;;;4993120;28;20181;-75
2023/07/25 11:47:51;;;;;;;5.85;0.90;;;26.30;63.70;;;;;;4996716;28;20049;-76
2023/07/25 11:50:18;;;;;;;1.92;0.60;;;26.40;60.30;;;;;;4994086;28;20054;-75
2023/07/25 11:52:45;;;;;;;3.05;0.80;;;26.10;59.20;;;;;;4993314;28;20117;-76
2023/07/25 11:55:12;;;;;;;3.40;0.95;;;25.60;61.20;;;;;;4980162;28;20046;-77
2023/07/25 11:57:40;;;;;;;2.55;0.77;;;25.30;63.50;;;;;;4995799;28;20456;-76
2023/07/25 12:00:09;;;;;;;3.30;0.80;;;24.90;62.00;;;;;;5007000;28;20049;-76
2023/07/25 12:02:37;;;;;;;1.95;0.80;;;24.10;61.90;;;;;;4976952;28;20033;-76
2023/07/25 12:05:03;;;;;;;3.28;0.80;;;23.30;61.10;;;;;;4996529;28;20053;-75
2023/07/25 12:07:56;;;;;;;2.95;0.70;;;22.60;64.70;;;;;;4999436;28;20041;-76
2023/07/25 12:10:29;;;;;;;2.25;0.80;;;22.10;65.20;;;;;;4994710;28;20088;-76
2023/07/25 12:12:55;;;;;;;2.90;0.82;;;21.70;68.20;;;;;;4995355;28;20498;-75
2023/07/25 12:15:23;;;;;;;4.63;1.35;;;21.40;76.50;;;;;;4998929;28;20045;-75
2023/07/25 12:17:49;;;;;;;2.60;0.80;;;21.50;95.00;;;;;;5011604;28;20140;-75
2023/07/25 12:20:19;;;;;;;4.38;0.88;;;21.60;94.30;;;;;;4999928;28;20126;-77
2023/07/25 12:22:46;;;;;;;3.00;0.80;;;21.40;92.40;;;;;;5004378;28;20498;-77
2023/07/25 12:25:19;;;;;;;4.63;0.90;;;21.10;86.30;;;;;;4979459;28;20069;-77
2023/07/25 12:27:48;;;;;;;5.53;1.08;;;20.70;94.10;;;;;;4995230;28;20050;-77
2023/07/25 12:30:14;;;;;;;4.38;1.20;;;20.50;99.90;;;;;;4995692;28;20115;-77
2023/07/25 12:32:40;;;;;;;3.47;1.20;;;20.30;97.20;;;;;;5002857;28;20521;-76
2023/07/25 12:35:06;;;;;;;3.88;0.98;;;20.30;99.90;;;;;;5015176;28;20041;-77
2023/07/25 12:37:32;;;;;;;4.55;1.15;;;20.20;99.90;;;;;;5015564;28;20079;-77
2023/07/25 12:39:58;;;;;;;2.92;1.00;;;20.20;99.90;;;;;;4999451;28;20505;-77